createdAt,value
2019-03-20T00:00:13.384Z,13.78
2019-03-20T00:05:20.231Z,13.05
2019-03-20T00:10:25.758Z,13.57
2019-03-20T00:15:30.966Z,14.05
2019-03-20T00:20:37.173Z,15.53
2019-03-20T00:25:42.502Z,15.53
2019-03-20T00:30:48.879Z,13.98
2019-03-20T00:35:54.144Z,16.32
2019-03-20T00:41:00.424Z,21.52
2019-03-20T00:46:05.668Z,17.35
2019-03-20T00:51:10.863Z,15.13
2019-03-20T00:56:17.273Z,18.13
2019-03-20T01:01:22.503Z,15.75
2019-03-20T01:06:27.855Z,14.75
2019-03-20T01:11:33.247Z,15.70
2019-03-20T01:16:39.502Z,16.48
2019-03-20T01:21:44.696Z,14.58
2019-03-20T01:26:49.910Z,13.55
2019-03-20T01:31:55.107Z,14.35
2019-03-20T01:37:00.738Z,14.97
2019-03-20T01:42:06.035Z,14.10
2019-03-20T01:47:11.245Z,13.85
2019-03-20T01:52:16.515Z,13.63
2019-03-20T01:57:22.327Z,13.00
2019-03-20T02:02:27.527Z,15.28
2019-03-20T02:07:32.735Z,11.90
2019-03-20T02:12:38.079Z,14.87
2019-03-20T02:17:43.279Z,18.00
2019-03-20T02:22:48.493Z,20.08
2019-03-20T02:27:53.696Z,22.02
2019-03-20T02:32:58.924Z,20.57
2019-03-20T02:38:04.628Z,18.92
2019-03-20T02:43:09.837Z,18.20
2019-03-20T02:48:15.133Z,17.67
2019-03-20T02:53:20.447Z,16.65
2019-03-20T02:58:25.646Z,16.20
2019-03-20T03:03:30.931Z,15.40
2019-03-20T03:08:36.217Z,15.50
2019-03-20T03:13:41.409Z,13.80
2019-03-20T03:18:46.607Z,15.48
2019-03-20T03:23:51.915Z,14.10
2019-03-20T03:28:57.186Z,14.60
2019-03-20T03:34:02.481Z,12.10
2019-03-20T03:39:08.460Z,13.50
2019-03-20T03:44:13.924Z,11.97
2019-03-20T03:49:19.166Z,14.53
2019-03-20T03:54:24.402Z,13.53
2019-03-20T03:59:29.722Z,12.43
2019-03-20T04:04:34.934Z,10.98
2019-03-20T04:09:40.139Z,14.55
2019-03-20T04:14:45.331Z,11.10
2019-03-20T04:19:50.760Z,12.13
2019-03-20T04:24:56.022Z,10.18
2019-03-20T04:30:01.221Z,11.38
2019-03-20T04:35:06.718Z,10.45
2019-03-20T04:40:12.254Z,10.10
2019-03-20T04:45:17.443Z,10.93
2019-03-20T04:50:22.949Z,11.45
2019-03-20T04:55:28.506Z,12.03
2019-03-20T05:00:33.703Z,10.60
2019-03-20T05:05:39.069Z,10.90
2019-03-20T05:10:44.260Z,10.40
2019-03-20T05:15:49.525Z,11.07
2019-03-20T05:20:55.189Z,12.00
2019-03-20T05:26:00.556Z,11.65
2019-03-20T05:31:05.756Z,11.80
2019-03-20T05:36:11.106Z,11.85
2019-03-20T05:41:16.507Z,11.15
2019-03-20T05:46:22.109Z,12.45
2019-03-20T05:51:27.359Z,12.07
2019-03-20T05:56:32.648Z,11.43
2019-03-20T06:01:37.877Z,11.75
2019-03-20T06:06:43.219Z,13.58
2019-03-20T06:11:48.534Z,12.98
2019-03-20T06:16:53.750Z,16.42
2019-03-20T06:21:59.090Z,13.20
2019-03-20T06:27:04.407Z,12.50
2019-03-20T06:32:09.614Z,12.00
2019-03-20T06:37:14.974Z,10.03
2019-03-20T06:42:20.241Z,42.93
2019-03-20T06:47:25.719Z,38.20
2019-03-20T06:52:31.013Z,13.97
2019-03-20T06:57:36.251Z,12.00
2019-03-20T07:02:44.438Z,11.83
2019-03-20T07:07:49.505Z,10.53
2019-03-20T07:12:54.916Z,12.30
2019-03-20T07:18:00.249Z,14.00
2019-03-20T07:23:05.734Z,14.90
2019-03-20T07:28:11.035Z,13.90
2019-03-20T07:33:17.142Z,10.82
2019-03-20T07:38:22.602Z,12.28
2019-03-20T07:43:27.958Z,13.08
2019-03-20T07:48:33.507Z,14.47
2019-03-20T07:53:38.879Z,11.13
2019-03-20T07:58:44.361Z,10.35
2019-03-20T08:03:49.554Z,17.30
2019-03-20T08:08:54.758Z,12.30
2019-03-20T08:14:00.158Z,14.13
2019-03-20T08:19:05.503Z,15.00
2019-03-20T08:24:10.722Z,13.78
2019-03-20T08:29:16.087Z,14.63
2019-03-20T08:34:21.330Z,12.07
2019-03-20T08:39:26.739Z,12.70
2019-03-20T08:44:32.011Z,15.15
2019-03-20T08:49:37.396Z,15.05
2019-03-20T08:54:42.636Z,14.33
2019-03-20T08:59:47.937Z,11.80
2019-03-20T09:04:54.293Z,13.22
2019-03-20T09:09:59.666Z,12.68
2019-03-20T09:15:05.087Z,15.50
2019-03-20T09:20:15.365Z,10.85
2019-03-20T09:25:20.608Z,11.97
2019-03-20T09:30:25.864Z,12.30
2019-03-20T09:35:31.224Z,11.88
2019-03-20T09:40:36.816Z,12.35
2019-03-20T09:45:42.094Z,13.57
2019-03-20T09:50:47.307Z,12.60
2019-03-20T09:55:52.521Z,10.28
2019-03-20T10:00:57.879Z,10.25
2019-03-20T10:06:03.164Z,13.40
2019-03-20T10:11:08.390Z,10.82
2019-03-20T10:16:13.590Z,9.35
2019-03-20T10:21:19.143Z,6.20
2019-03-20T10:26:24.422Z,5.50
2019-03-20T10:31:29.716Z,8.37
2019-03-20T10:36:34.912Z,7.37
2019-03-20T10:41:40.130Z,7.83
2019-03-20T10:46:46.393Z,8.73
2019-03-20T10:51:51.744Z,8.20
2019-03-20T10:56:57.194Z,5.97
2019-03-20T11:02:02.739Z,7.35
2019-03-20T11:07:08.122Z,6.73
2019-03-20T11:12:13.328Z,7.93
2019-03-20T11:17:18.541Z,65.47
2019-03-20T11:22:24.720Z,4.35
2019-03-20T11:27:29.929Z,9.28
2019-03-20T11:32:35.279Z,6.87
2019-03-20T11:37:40.499Z,4.95
2019-03-20T11:42:46.018Z,6.55
2019-03-20T11:47:51.274Z,8.15
2019-03-20T11:52:56.534Z,6.37
2019-03-20T11:58:01.745Z,5.80
2019-03-20T12:03:07.080Z,5.25
2019-03-20T12:08:12.291Z,6.00
2019-03-20T12:13:17.551Z,4.65
2019-03-20T12:18:22.908Z,5.30
2019-03-20T12:23:28.218Z,5.78
2019-03-20T12:28:33.417Z,6.30
2019-03-20T12:33:38.675Z,5.87
2019-03-20T12:38:43.995Z,3.50
2019-03-20T12:43:49.484Z,5.62
2019-03-20T12:48:54.733Z,3.93
2019-03-20T12:54:00.017Z,6.40
2019-03-20T12:59:05.206Z,7.30
2019-03-20T13:04:10.818Z,7.23
2019-03-20T13:09:16.608Z,4.75
2019-03-20T13:14:22.042Z,4.33
2019-03-20T13:19:27.274Z,6.28
2019-03-20T13:24:32.854Z,5.60
2019-03-20T13:29:38.141Z,4.28
2019-03-20T13:34:43.823Z,4.67
2019-03-20T13:39:50.439Z,5.80
2019-03-20T13:44:55.735Z,4.05
2019-03-20T13:50:00.986Z,6.17
2019-03-20T13:55:06.711Z,5.78
2019-03-20T14:00:15.153Z,5.75
2019-03-20T14:05:20.987Z,4.85
2019-03-20T14:10:26.508Z,5.42
2019-03-20T14:15:31.806Z,5.22
2019-03-20T14:20:37.132Z,4.67
2019-03-20T14:25:42.679Z,4.47
2019-03-20T14:30:48.048Z,7.17
2019-03-20T14:35:53.286Z,5.70
2019-03-20T14:40:58.573Z,3.35
2019-03-20T14:46:03.805Z,3.22
2019-03-20T14:51:09.121Z,3.98
2019-03-20T14:56:14.622Z,4.58
2019-03-20T15:01:20.812Z,3.77
2019-03-20T15:06:26.054Z,3.85
2019-03-20T15:11:31.277Z,5.05
2019-03-20T15:16:36.672Z,5.70
2019-03-20T15:21:41.999Z,3.75
2019-03-20T15:26:47.279Z,4.20
2019-03-20T15:31:52.510Z,3.98
2019-03-20T15:36:57.799Z,5.55
2019-03-20T15:42:03.032Z,4.62
2019-03-20T15:47:09.261Z,4.03
2019-03-20T15:52:14.492Z,5.20
2019-03-20T15:57:20.049Z,2.87
2019-03-20T16:02:25.315Z,4.45
2019-03-20T16:07:30.648Z,6.00
2019-03-20T16:12:35.890Z,4.53
2019-03-20T16:17:41.248Z,3.75
2019-03-20T16:22:46.614Z,6.42
2019-03-20T16:27:51.958Z,3.92
2019-03-20T16:32:57.251Z,4.62
2019-03-20T16:38:02.515Z,7.35
2019-03-20T16:43:08.481Z,7.00
2019-03-20T16:48:13.927Z,4.58
2019-03-20T16:53:19.187Z,6.28
2019-03-20T16:58:24.468Z,7.17
2019-03-20T17:03:30.723Z,5.45
2019-03-20T17:08:35.939Z,4.83
2019-03-20T17:13:41.455Z,9.05
2019-03-20T17:18:47.715Z,8.45
2019-03-20T17:23:52.924Z,22.62
2019-03-20T17:28:58.126Z,6.03
2019-03-20T17:34:03.333Z,5.50
2019-03-20T17:39:10.007Z,4.58
2019-03-20T17:44:15.306Z,7.30
2019-03-20T17:49:20.833Z,7.67
2019-03-20T17:54:26.207Z,10.40
2019-03-20T17:59:31.498Z,9.55
2019-03-20T18:04:36.757Z,5.62
2019-03-20T18:09:41.940Z,7.17
2019-03-20T18:14:47.246Z,5.42
2019-03-20T18:19:52.450Z,5.87
2019-03-20T18:24:57.747Z,5.70
2019-03-20T18:30:02.969Z,6.17
2019-03-20T18:35:08.503Z,5.67
2019-03-20T18:40:15.148Z,6.12
2019-03-20T18:45:20.825Z,7.15
2019-03-20T18:50:26.142Z,8.68
2019-03-20T18:55:32.437Z,10.18
2019-03-20T19:00:37.741Z,7.43
2019-03-20T19:05:49.588Z,9.85
2019-03-20T19:10:54.972Z,11.48
2019-03-20T19:16:01.906Z,13.13
2019-03-20T19:21:07.635Z,11.63
2019-03-20T19:26:12.897Z,20.05
2019-03-20T19:31:18.098Z,22.22
2019-03-20T19:36:23.396Z,22.80
2019-03-20T19:41:28.866Z,18.70
2019-03-20T19:46:34.210Z,19.15
2019-03-20T19:51:39.570Z,17.50
2019-03-20T19:56:46.278Z,19.77
2019-03-20T20:01:51.505Z,17.48
2019-03-20T20:06:56.741Z,14.80
2019-03-20T20:12:02.029Z,17.90
2019-03-20T20:17:07.835Z,16.42
2019-03-20T20:22:14.256Z,18.50
2019-03-20T20:27:20.605Z,13.85
2019-03-20T20:32:26.074Z,16.65
2019-03-20T20:37:31.643Z,17.02
2019-03-20T20:42:43.047Z,17.95
2019-03-20T20:47:44.145Z,23.73
2019-03-20T20:52:49.492Z,18.70
2019-03-20T20:57:54.813Z,13.75
2019-03-20T21:03:00.150Z,15.07
2019-03-20T21:08:05.360Z,21.65
2019-03-20T21:13:11.241Z,21.93
2019-03-20T21:18:57.408Z,26.30
2019-03-20T21:24:30.303Z,23.93
2019-03-20T21:30:07.819Z,17.67
2019-03-20T21:36:06.008Z,21.45
2019-03-20T21:42:07.336Z,21.47
2019-03-20T21:47:34.088Z,23.38
2019-03-20T21:52:40.067Z,28.40
2019-03-20T21:58:01.574Z,33.25
2019-03-20T22:03:07.569Z,28.55
2019-03-20T22:08:13.892Z,29.23
2019-03-20T22:13:29.543Z,24.43
2019-03-20T22:19:24.424Z,20.50
2019-03-20T22:25:03.207Z,25.63
2019-03-20T22:30:09.700Z,23.73
2019-03-20T22:35:44.455Z,20.63
2019-03-20T22:41:31.126Z,23.57
2019-03-20T22:47:31.775Z,19.80
2019-03-20T22:53:09.036Z,20.40
2019-03-20T22:58:47.052Z,19.73
2019-03-20T23:03:57.881Z,20.37
2019-03-20T23:09:05.552Z,19.90
2019-03-20T23:14:13.643Z,19.70
2019-03-20T23:19:19.793Z,16.57
2019-03-20T23:24:25.919Z,16.05
2019-03-20T23:29:33.074Z,19.17
2019-03-20T23:34:39.730Z,16.62
2019-03-20T23:39:46.035Z,15.70
2019-03-20T23:44:52.516Z,16.48
2019-03-20T23:49:58.620Z,17.47
2019-03-20T23:55:05.948Z,16.17
